• Join FlightAware (Why Join?)
  • Login
  • US Flag 
Trick or treat! (Boo!!) 
01:57PM EDT


 

Airport Tracker/Info


-or-


 

Live Flight TrackerFlight Track Log ✈ AWE66 ✈ 17-May-2013 ✈ KSAN - KDCA

Flight Track Log - Related Links

Times and Time Zones

All times are in EDT time to prevent confusion due to time zone crossing. See the AWE66 flight status page for this flight to view local times or setup timezone preferences in your user account.

Time Position Orientation Groundspeed Altitude Reporting Facility
EDT Latitude Longitude Course Direction KTS MPH feet Rate Location/Type
04:06PM 32.7422 -117.2225 16° North 177 204 1,300  Level Los Angeles Center
04:07PM 32.7556 -117.2917 283° West 213 245 2,800 2,100 Climbing Los Angeles Center
04:08PM 32.6108 -117.0371 103° East  Level FlightAware Approximate
04:08PM 32.6978 -117.3094 195° South 254 292 5,700  Level Los Angeles Center
04:09PM 32.6068 -116.8924 84° East  Level FlightAware Approximate
04:09PM 32.6472 -117.2253 125° Southeast 276 318 8,300  Level Los Angeles Center
04:10PM 32.6329 -116.7606 18° North  Level FlightAware Approximate
04:10PM 32.6319 -117.1233 100° East 313 360 10,600  Level Los Angeles Center
04:11PM 32.7507 -116.7164 16° North  Level FlightAware Approximate
04:11PM 32.6142 -117.0089 100° East 343 395 11,500  Level Los Angeles Center
04:12PM 32.6203 -116.8747 87° East 398 458 13,300 1,860 Climbing Los Angeles Center
04:13PM 32.6714 -116.7594 62° Northeast 416 479 15,400 1,980 Climbing Los Angeles Center
04:14PM 32.7983 -116.6875 25° Northeast 418 481 17,400 1,680 Climbing Los Angeles Center
04:15PM 32.9058 -116.6194 28° Northeast 428 493 19,000 1,500 Climbing Los Angeles Center
04:16PM 33.0164 -116.5497 28° Northeast 437 503 20,600 1,320 Climbing Los Angeles Center
04:17PM 33.1286 -116.4783 28° Northeast 447 514 21,800 1,260 Climbing Los Angeles Center
04:18PM 33.2419 -116.4058 28° Northeast 457 526 23,300 1,260 Climbing Los Angeles Center
04:19PM 33.3569 -116.3333 28° Northeast 463 533 24,500 960 Climbing Los Angeles Center
04:20PM 33.4706 -116.2606 28° Northeast 462 532 25,300 780 Climbing Los Angeles Center
04:21PM 33.5886 -116.1842 28° Northeast 477 549 26,200 900 Climbing Los Angeles Center
04:22PM 33.6747 -116.0169 58° Northeast 501 577 27,200 1,020 Climbing Los Angeles Center
04:23PM 33.7258 -115.8600 69° East 500 575 28,400 1,020 Climbing Los Angeles Center
04:24PM 33.7761 -115.7028 69° East 503 579 29,400 960 Climbing Los Angeles Center
04:25PM 33.8275 -115.5453 69° East 504 580 30,500 720 Climbing Los Angeles Center
04:26PM 33.8756 -115.3925 69° East 493 567 30,900 180 Climbing Los Angeles Center
04:28PM 33.9244 -115.2397 69° East 489 563 30,900  Level Los Angeles Center
04:29PM 33.9842 -115.0553 69° East 493 567 30,900  Level Los Angeles Center
04:30PM 34.0322 -114.9017 69° East 491 565 30,900  Level Los Angeles Center
04:31PM 34.0817 -114.7453 69° East 496 571 30,900  Level Los Angeles Center
04:32PM 34.1297 -114.5889 70° East 496 571 30,900  Level Los Angeles Center
04:33PM 34.1725 -114.4294 72° East 498 573 30,900  Level Los Angeles Center
04:34PM 34.2186 -114.2697 71° East 502 578 31,000 60 Climbing Los Angeles Center
04:34PM 34.2314 -114.2192 73° East 504 580 31,000  Level Albuquerque Center
04:35PM 34.2767 -114.0581 71° East 507 583 31,000  Level Albuquerque Center
04:36PM 34.3294 -113.8669 71° East 506 582 31,000  Level Albuquerque Center
04:37PM 34.3733 -113.7094 71° East 502 578 31,000  Level Albuquerque Center
04:38PM 34.4147 -113.5544 72° East 499 574 31,000  Level Albuquerque Center
04:39PM 34.4617 -113.3872 71° East 492 566 31,000 -60 Level Albuquerque Center
04:40PM 34.5033 -113.2303 72° East 491 565 30,900  Descending Albuquerque Center
04:41PM 34.5453 -113.0736 72° East 494 568 31,000  Climbing Albuquerque Center
04:42PM 34.5869 -112.9158 72° East 495 570 31,000  Level Albuquerque Center
04:43PM 34.6294 -112.7597 72° East 493 567 31,000  Level Albuquerque Center
04:44PM 34.6789 -112.5711 72° East 494 568 31,000  Level Albuquerque Center
04:45PM 34.7197 -112.4136 72° East 494 568 31,000  Level Albuquerque Center
04:46PM 34.7544 -112.2547 75° East 494 568 31,000  Level Albuquerque Center
04:47PM 34.7900 -112.0967 75° East 491 565 31,000  Level Albuquerque Center
04:48PM 34.8264 -111.9378 74° East 492 566 31,000  Level Albuquerque Center
04:49PM 34.8694 -111.7453 75° East 495 570 31,000  Level Albuquerque Center
04:51PM 34.9075 -111.5753 75° East 493 567 31,000  Level Albuquerque Center
04:52PM 34.9433 -111.4139 75° East 493 567 31,000  Level Albuquerque Center
04:53PM 34.9786 -111.2525 75° East 492 566 31,000  Level Albuquerque Center
04:54PM 35.0139 -111.0919 75° East 490 564 31,000  Level Albuquerque Center
04:55PM 35.0489 -110.9294 75° East 493 567 31,000  Level Albuquerque Center
04:56PM 35.0897 -110.7439 75° East 489 563 31,000  Level Albuquerque Center
04:57PM 35.1208 -110.5900 76° East 488 562 31,000  Level Albuquerque Center
04:58PM 35.1547 -110.4394 75° East 485 558 31,000 -60 Level Albuquerque Center
04:59PM 35.1914 -110.2614 76° East 483 556 30,900  Descending Albuquerque Center
05:00PM 35.2247 -110.1108 75° East 482 555 31,000  Climbing Albuquerque Center
05:01PM 35.2617 -109.9328 76° East 484 557 31,000  Level Albuquerque Center
05:02PM 35.2933 -109.7800 76° East 485 558 31,000  Level Albuquerque Center
05:03PM 35.3306 -109.6017 76° East 485 558 31,000  Level Albuquerque Center
05:04PM 35.3611 -109.4489 76° East 485 558 31,000  Level Albuquerque Center
05:05PM 35.3967 -109.2706 76° East 483 556 31,000  Level Albuquerque Center
05:06PM 35.4267 -109.1208 76° East 478 550 31,000 -60 Level Albuquerque Center
05:07PM 35.4622 -108.9481 76° East 473 544 30,900  Descending Albuquerque Center
05:08PM 35.4958 -108.8006 74° East 472 543 31,000  Climbing Albuquerque Center
05:09PM 35.5442 -108.6286 71° East 479 551 31,000  Level Albuquerque Center
05:10PM 35.5842 -108.4808 72° East 479 551 31,000  Level Albuquerque Center
05:11PM 35.6308 -108.3078 72° East 480 552 31,000  Level Albuquerque Center
05:12PM 35.6700 -108.1597 72° East 479 551 31,000  Level Albuquerque Center
05:13PM 35.7094 -108.0114 72° East 479 551 31,000  Level Albuquerque Center
05:14PM 35.7547 -107.8367 72° East 480 552 31,000  Level Albuquerque Center
05:15PM 35.7936 -107.6875 72° East 480 552 31,000  Level Albuquerque Center
05:16PM 35.8400 -107.5117 72° East 482 555 31,000  Level Albuquerque Center
05:17PM 35.8794 -107.3603 72° East 484 557 31,000  Level Albuquerque Center
05:18PM 35.9250 -107.1861 72° East 481 554 31,000  Level Albuquerque Center
05:19PM 35.9650 -107.0294 72° East 481 554 31,000  Level Albuquerque Center
05:20PM 36.0050 -106.8733 72° East 478 550 31,000  Level Albuquerque Center
05:21PM 36.0456 -106.7178 72° East 475 547 31,000  Level Albuquerque Center
05:22PM 36.0844 -106.5606 73° East 476 548 31,000  Level Albuquerque Center
05:23PM 36.1239 -106.4028 73° East 479 551 31,000  Level Albuquerque Center
05:25PM 36.1633 -106.2436 73° East 482 555 31,000  Level Albuquerque Center
05:26PM 36.2106 -106.0564 73° East 477 549 31,000  Level Albuquerque Center
05:27PM 36.2492 -105.9017 73° East 472 543 31,000 -60 Level Albuquerque Center
05:28PM 36.2856 -105.7433 74° East 475 547 30,900 -60 Descending Albuquerque Center
05:29PM 36.3231 -105.5872 73° East 474 545 30,900  Level Albuquerque Center
05:30PM 36.3664 -105.4081 73° East 476 548 31,000  Climbing Albuquerque Center
05:31PM 36.4036 -105.2483 74° East 478 550 31,000  Level Albuquerque Center
05:32PM 36.4422 -105.0864 73° East 481 554 31,000  Level Albuquerque Center
05:33PM 36.4800 -104.9258 74° East 480 552 31,000  Level Albuquerque Center
05:34PM 36.5306 -104.7672 68° East 488 562 31,000  Level Albuquerque Center
05:35PM 36.5878 -104.6136 65° Northeast 485 558 31,000  Level Albuquerque Center
05:36PM 36.6425 -104.4592 66° East 483 556 31,000  Level Albuquerque Center
05:37PM 36.7044 -104.2908 65° Northeast 481 554 31,000  Level Albuquerque Center
05:38PM 36.7567 -104.1458 66° East 480 552 31,000  Level Albuquerque Center
05:39PM 36.8175 -103.9753 66° East 483 556 31,000  Level Albuquerque Center
05:40PM 36.8703 -103.8297 66° East 484 557 31,000 -60 Level Albuquerque Center
05:41PM 36.9303 -103.6608 66° East 480 552 30,900 -60 Descending Albuquerque Center
05:42PM 36.9808 -103.5153 66° East 480 552 30,900  Level Albuquerque Center
05:43PM 37.0333 -103.3686 66° East 483 556 31,000  Climbing Albuquerque Center
05:44PM 37.0933 -103.1958 66° East 487 560 31,000  Level Albuquerque Center
05:45PM 37.1453 -103.0478 66° East 486 559 31,000  Level Albuquerque Center
05:46PM 37.2047 -102.8747 67° East 486 559 31,000  Level Albuquerque Center
05:47PM 37.2558 -102.7294 66° East 480 552 31,000 -60 Level Albuquerque Center
05:48PM 37.3128 -102.5608 67° East 472 543 30,900  Descending Albuquerque Center
05:49PM 37.3614 -102.4167 67° East 470 541 31,000  Climbing Albuquerque Center
05:50PM 37.4189 -102.2486 67° East 476 548 31,000  Level Albuquerque Center
05:51PM 37.4675 -102.1031 67° East 473 544 31,000  Level Albuquerque Center
05:52PM 37.5256 -101.9306 67° East 478 550 31,000  Level Albuquerque Center
05:53PM 37.5744 -101.7797 68° East 483 556 31,000  Level Kansas City Center
05:54PM 37.6314 -101.6078 67° East 479 551 31,000  Level Kansas City Center
05:55PM 37.6817 -101.4581 67° East 481 554 31,000  Level Kansas City Center
05:56PM 37.7392 -101.2819 68° East 483 556 31,000  Level Kansas City Center
05:58PM 37.7889 -101.1317 67° East 482 555 31,000  Level Kansas City Center
05:59PM 37.8383 -100.9797 68° East 481 554 31,000  Level Kansas City Center
06:00PM 37.8958 -100.8006 68° East 485 558 31,000  Level Kansas City Center
06:01PM 37.9447 -100.6492 68° East 483 556 31,000  Level Kansas City Center
06:02PM 38.0039 -100.4744 67° East 482 555 31,000  Level Kansas City Center
06:03PM 38.0544 -100.3244 67° East 483 556 31,000  Level Kansas City Center
06:04PM 38.1125 -100.1519 67° East 478 550 31,000  Level Kansas City Center
06:05PM 38.1622 -100.0039 67° East 475 547 31,000  Level Kansas City Center
06:06PM 38.2192 -99.8306 67° East 476 548 31,000  Level Kansas City Center
06:07PM 38.2686 -99.6831 67° East 474 545 31,000  Level Kansas City Center
06:08PM 38.3172 -99.5339 67° East 476 548 31,000  Level Kansas City Center
06:09PM 38.3711 -99.3725 67° East 473 544 31,000  Level Kansas City Center
06:10PM 38.4203 -99.2181 68° East 469 540 31,000  Level Kansas City Center
06:11PM 38.4711 -99.0628 67° East 473 544 31,000  Level Kansas City Center
06:12PM 38.5219 -98.9078 67° East 472 543 31,000  Level Kansas City Center
06:13PM 38.5825 -98.7181 68° East 479 551 31,000  Level Kansas City Center
06:14PM 38.6319 -98.5644 68° East 468 539 31,000  Level Kansas City Center
06:15PM 38.6814 -98.4067 68° East 476 548 31,000  Level Kansas City Center
06:16PM 38.7297 -98.2517 68° East 469 540 31,000  Level Kansas City Center
06:17PM 38.7794 -98.0967 68° East 468 539 31,000  Level Kansas City Center
06:18PM 38.8278 -97.9408 68° East 469 540 31,000  Level Kansas City Center
06:19PM 38.8825 -97.7639 68° East 462 532 31,000  Level Kansas City Center
06:20PM 38.9272 -97.6161 69° East 464 534 31,000  Level Kansas City Center
06:21PM 38.9511 -97.4333 80° East 473 544 31,000  Level Kansas City Center
06:22PM 38.9742 -97.2689 80° East 467 537 31,000  Level Kansas City Center
06:23PM 38.9989 -97.0894 80° East 467 537 31,000  Level Kansas City Center
06:24PM 39.0203 -96.9311 80° East 469 540 31,000  Level Kansas City Center
06:25PM 39.0442 -96.7464 80° East 469 540 31,000  Level Kansas City Center
06:26PM 39.0642 -96.5911 81° East 464 534 31,000  Level Kansas City Center
06:28PM 39.0858 -96.4069 81° East 465 535 31,000  Level Kansas City Center
06:29PM 39.1064 -96.2456 81° East 468 539 31,000  Level Kansas City Center
06:30PM 39.1256 -96.0911 81° East 464 534 31,000  Level Kansas City Center
06:31PM 39.1478 -95.9067 81° East 463 533 31,000  Level Kansas City Center
06:32PM 39.1686 -95.7472 80° East 472 543 31,000  Level Kansas City Center
06:33PM 39.1903 -95.5633 81° East 465 535 31,000  Level Kansas City Center
06:34PM 39.2117 -95.3819 81° East 467 537 31,000  Level Kansas City Center
06:35PM 39.2308 -95.2167 81° East 468 539 31,000  Level Kansas City Center
06:36PM 39.2500 -95.0492 82° East 464 534 31,000  Level Kansas City Center
06:37PM 39.2678 -94.8919 82° East 462 532 31,000  Level Kansas City Center
06:38PM 39.2875 -94.7089 82° East 476 548 31,000  Level Kansas City Center
06:39PM 39.3103 -94.5517 79° East 466 536 31,000  Level Kansas City Center
06:40PM 39.3336 -94.3689 81° East 463 533 31,000  Level Kansas City Center
06:41PM 39.3533 -94.2125 81° East 462 532 31,000  Level Kansas City Center
06:42PM 39.3767 -94.0278 81° East 466 536 31,000  Level Kansas City Center
06:43PM 39.3967 -93.8697 81° East 467 537 31,000  Level Kansas City Center
06:44PM 39.4167 -93.7158 80° East 468 539 31,000  Level Kansas City Center
06:45PM 39.4431 -93.5181 80° East 471 542 31,000  Level Kansas City Center
06:46PM 39.4619 -93.3500 82° East 474 545 31,000  Level Kansas City Center
06:47PM 39.4817 -93.1839 81° East 474 545 31,000  Level Kansas City Center
06:48PM 39.5006 -93.0153 82° East 477 549 31,000  Level Kansas City Center
06:49PM 39.5194 -92.8469 82° East 479 551 31,000  Level Kansas City Center
06:50PM 39.5436 -92.6439 81° East 480 552 31,000  Level Kansas City Center
06:51PM 39.5619 -92.4781 82° East 478 550 31,000  Level Kansas City Center
06:52PM 39.5797 -92.3128 82° East 473 544 31,000  Level Kansas City Center
06:53PM 39.5975 -92.1464 82° East 473 544 31,000  Level Kansas City Center
06:54PM 39.6197 -91.9450 82° East 475 547 31,000  Level Kansas City Center
06:55PM 39.6378 -91.7764 82° East 478 550 31,000  Level Kansas City Center
06:56PM 39.6556 -91.6081 82° East 477 549 31,000  Level Kansas City Center
06:57PM 39.6733 -91.4400 82° East 477 549 31,000  Level Kansas City Center
06:59PM 39.6936 -91.2442 82° East 476 548 31,000  Level Kansas City Center
07:00PM 39.7106 -91.0747 83° East 475 547 31,000  Level Kansas City Center
07:01PM 39.7267 -90.9053 83° East 473 544 31,000  Level Kansas City Center
07:02PM 39.7431 -90.7353 83° East 472 543 31,000  Level Kansas City Center
07:03PM 39.7603 -90.5567 83° East 470 541 31,000  Level Kansas City Center
07:04PM 39.7756 -90.3883 83° East 470 541 31,000  Level Kansas City Center
07:05PM 39.7914 -90.2194 83° East 472 543 31,000  Level Kansas City Center
07:06PM 39.8058 -90.0503 84° East 472 543 31,000  Level Kansas City Center
07:07PM 39.8247 -89.8500 83° East 470 541 31,000  Level Kansas City Center
07:08PM 39.8383 -89.6814 84° East 471 542 31,000  Level Kansas City Center
07:09PM 39.8400 -89.5153 89° East 465 535 31,000  Level Kansas City Center
07:10PM 39.8411 -89.3467 89° East 467 537 31,000  Level Kansas City Center
07:11PM 39.8414 -89.1806 90° East 463 533 31,000  Level Kansas City Center
07:12PM 39.8422 -88.9803 90° East 464 534 31,000  Level Kansas City Center
07:13PM 39.8428 -88.8131 90° East 464 534 31,000  Level Kansas City Center
07:14PM 39.8425 -88.6456 90° East 464 534 31,000  Level Kansas City Center
07:15PM 39.8431 -88.4783 90° East 463 533 31,000  Level Kansas City Center
07:16PM 39.8422 -88.3117 90° East 465 535 31,000  Level Kansas City Center
07:17PM 39.8422 -88.1297 90° East 461 531 31,000  Level Kansas City Center
07:18PM 39.8400 -87.9608 91° East 464 534 31,000  Level Kansas City Center
07:19PM 39.8383 -87.7942 91° East 461 531 31,000  Level Kansas City Center
07:20PM 39.8361 -87.6256 91° East 466 536 31,000  Level Indianapolis Center
07:21PM 39.8325 -87.4239 91° East 466 536 31,000  Level Indianapolis Center
07:22PM 39.8319 -87.2564 90° East 465 535 31,000  Level Indianapolis Center
07:23PM 39.8283 -87.0881 92° East 466 536 31,000  Level Indianapolis Center
07:24PM 39.8258 -86.9200 91° East 466 536 31,000  Level Indianapolis Center
07:25PM 39.8233 -86.7519 91° East 464 534 31,000  Level Indianapolis Center
07:26PM 39.8200 -86.5853 91° East 462 532 31,000  Level Indianapolis Center
07:27PM 39.8167 -86.4189 91° East 459 528 31,000  Level Indianapolis Center
07:28PM 39.8278 -86.2492 85° East 462 532 31,000  Level Indianapolis Center
07:30PM 39.8456 -86.0792 82° East 459 528 31,000  Level Indianapolis Center
07:31PM 39.8625 -85.9139 82° East 460 529 31,000  Level Indianapolis Center
07:32PM 39.8822 -85.7172 82° East 458 527 31,000  Level Indianapolis Center
07:33PM 39.8983 -85.5528 83° East 458 527 31,000  Level Indianapolis Center
07:34PM 39.9142 -85.3889 83° East 457 526 31,000  Level Indianapolis Center
07:35PM 39.9300 -85.2244 83° East 457 526 31,000  Level Indianapolis Center
07:36PM 39.9461 -85.0586 83° East 461 531 31,000  Level Indianapolis Center
07:37PM 39.9628 -84.8781 83° East 466 536 31,000  Level Indianapolis Center
07:38PM 39.9783 -84.7083 83° East 467 537 31,000 -60 Level Indianapolis Center
07:39PM 39.9931 -84.5419 83° East 461 531 30,900 -60 Descending Indianapolis Center
07:40PM 40.0083 -84.3753 83° East 459 528 30,900  Level Indianapolis Center
07:41PM 40.0231 -84.2089 83° East 459 528 30,900  Level Indianapolis Center
07:42PM 40.0375 -84.0417 84° East 460 529 30,900  Level Indianapolis Center
07:43PM 40.0514 -83.8714 84° East 464 534 30,900  Level Indianapolis Center
07:44PM 40.0664 -83.6989 83° East 470 541 31,000  Climbing Indianapolis Center
07:45PM 40.0806 -83.5233 84° East 476 548 31,000  Level Indianapolis Center
07:46PM 40.0942 -83.3475 84° East 477 549 31,000 -60 Level Indianapolis Center
07:47PM 40.0956 -83.1728 89° East 474 545 30,900 -60 Descending Indianapolis Center
07:48PM 40.0531 -82.9772 106° East 473 544 30,900  Level Indianapolis Center
07:49PM 40.0158 -82.8094 106° East 475 547 30,900  Level Indianapolis Center
07:50PM 39.9772 -82.6428 107° East 475 547 30,900  Level Indianapolis Center
07:51PM 39.9394 -82.4772 107° East 474 545 30,900  Level Indianapolis Center
07:52PM 39.9022 -82.3108 106° East 475 547 31,000  Climbing Indianapolis Center
07:53PM 39.8631 -82.1453 107° East 474 545 30,900 -60 Descending Indianapolis Center
07:54PM 39.8239 -81.9806 107° East 473 544 30,900  Level Indianapolis Center
07:55PM 39.7853 -81.8144 107° East 475 547 30,900  Level Indianapolis Center
07:56PM 39.7458 -81.6497 107° East 473 544 30,900  Level Indianapolis Center
07:57PM 39.7111 -81.4897 106° East 465 535 31,000  Climbing Cleveland Center
07:58PM 39.6708 -81.3300 108° East 465 535 31,000  Level Cleveland Center
07:59PM 39.6319 -81.1681 107° East 465 535 31,000  Level Cleveland Center
08:00PM 39.5933 -81.0033 107° East 465 535 31,000  Level Cleveland Center
08:01PM 39.5542 -80.8389 107° East 465 535 31,000  Level Cleveland Center
08:01PM 39.5419 -80.8078 117° Southeast 474 545 31,000  Level Indianapolis Center
08:02PM 39.5008 -80.6433 108° East 479 551 31,000  Level Indianapolis Center
08:03PM 39.4608 -80.4803 108° East 475 547 31,000  Level Indianapolis Center
08:04PM 39.4481 -80.4186 105° East 468 539 31,000  Level Washington Center
08:05PM 39.4086 -80.2575 108° East 468 539 31,000  Level Washington Center
08:06PM 39.3669 -80.0964 108° East 468 539 31,000  Level Washington Center
08:07PM 39.3247 -79.9356 109° East 468 539 31,000 -360 Level Washington Center
08:08PM 39.2931 -79.7728 104° East 468 539 30,400 -840 Descending Washington Center
08:09PM 39.2781 -79.6003 96° East 468 539 29,400 -960 Descending Washington Center
08:10PM 39.2669 -79.4281 95° East 474 545 28,500 -1,020 Descending Washington Center
08:11PM 39.2497 -79.2447 97° East 479 551 27,400 -1,200 Descending Washington Center
08:12PM 39.2358 -79.0858 96° East 460 529 26,200 -1,620 Descending Washington Center
08:13PM 39.2214 -78.9325 97° East 453 521 24,200 -1,980 Descending Washington Center
08:14PM 39.2067 -78.7819 97° East 432 497 22,300 -1,920 Descending Washington Center
08:15PM 39.1917 -78.6367 98° East 421 484 20,400 -1,860 Descending Washington Center
08:16PM 39.1786 -78.4942 97° East 409 471 18,600 -1,740 Descending Washington Center
08:17PM 39.1631 -78.3569 98° East 398 458 16,900 -1,440 Descending Washington Center
08:18PM 39.1325 -78.2300 107° East 384 442 15,700 -1,320 Descending Washington Center
08:19PM 39.0997 -78.1031 108° East 374 430 14,400 -1,320 Descending Washington Center
08:20PM 39.0669 -77.9789 109° East 368 423 13,200 -1,260 Descending Washington Center
08:21PM 39.0358 -77.8603 109° East 363 418 11,900 -1,320 Descending Washington Center
08:22PM 39.0086 -77.7528 108° East 353 406 10,700 -1,320 Descending Washington Center
08:23PM 38.9775 -77.6317 108° East 336 387 9,300 -1,380 Descending Washington Center
08:23PM 38.9500 -77.5667 119° Southeast 310 357 8,500 -1,080 Descending Potomac TRACON
08:25PM 38.9667 -77.4667 78° East 275 316 7,500 -1,440 Descending Potomac TRACON
08:26PM 38.9833 -77.3667 78° East 258 297 5,600 -1,440 Descending Potomac TRACON
08:27PM 39.0000 -77.2833 76° East 238 274 4,700 -1,200 Descending Potomac TRACON
08:28PM 39.0000 -77.2167 90° East 221 254 3,300 -900 Descending Potomac TRACON
08:28PM 38.9667 -77.1667 131° Southeast 177 204 3,000 -360 Descending Potomac TRACON